Time;durP1;ratioP1;P1;durP2;ratioP2;P2;SDS_P1;SDS_P2;PMS_P1;PMS_P2;Temp;Humidity;BMP_temperature;BMP_pressure;BME280_temperature;BME280_humidity;BME280_pressure;Samples;Min_cycle;Max_cycle;Signal;HPM_P1;HPM_P2
2024/04/20 00:00:53;;;;;;;9.48;4.13;;;;;;;;;;5540265;25;20024;-61
2024/04/20 00:03:22;;;;;;;8.82;4.18;;;;;;;;;;5528301;25;20360;-61
2024/04/20 00:05:50;;;;;;;9.93;4.13;;;;;;;;;;5524414;25;20044;-61
2024/04/20 00:08:19;;;;;;;7.55;3.75;;;;;;;;;;5567318;25;20040;-61
2024/04/20 00:10:48;;;;;;;7.80;4.22;;;;;;;;;;5562753;25;20481;-61
2024/04/20 00:13:17;;;;;;;6.78;4.13;;;;;;;;;;5538684;25;20038;-61
2024/04/20 00:15:49;;;;;;;7.13;4.20;;;;;;;;;;5556244;25;20028;-62
2024/04/20 00:18:17;;;;;;;7.95;4.15;;;;;;;;;;5555184;25;20029;-61
2024/04/20 00:20:46;;;;;;;9.63;4.28;;;;;;;;;;5574300;25;20025;-62
2024/04/20 00:23:12;;;;;;;7.45;4.45;;;;;;;;;;5568222;25;20024;-61
2024/04/20 00:25:41;;;;;;;8.32;4.00;;;;;;;;;;5568072;25;20029;-61
2024/04/20 00:28:10;;;;;;;8.57;4.45;;;;;;;;;;5538128;25;20372;-61
2024/04/20 00:30:39;;;;;;;10.55;4.53;;;;;;;;;;5553238;25;20396;-61
2024/04/20 00:33:10;;;;;;;9.57;4.30;;;;;;;;;;5556224;25;20486;-61
2024/04/20 00:35:40;;;;;;;10.38;4.32;;;;;;;;;;5573470;25;20041;-61
2024/04/20 00:38:08;;;;;;;;;;;;;;;;;;5567129;25;20045;-61
2024/04/20 00:40:37;;;;;;;8.93;3.95;;;;;;;;;;5567679;25;19955;-61
2024/04/20 00:43:06;;;;;;;11.52;4.60;;;;;;;;;;5552623;25;20042;-61
2024/04/20 00:45:35;;;;;;;9.68;4.28;;;;;;;;;;5566739;25;20028;-61
2024/04/20 00:48:05;;;;;;;9.17;3.90;;;;;;;;;;5576508;25;20028;-61
2024/04/20 00:50:37;;;;;;;9.80;4.03;;;;;;;;;;5579755;25;20736;-61
2024/04/20 00:53:07;;;;;;;8.98;4.10;;;;;;;;;;5569709;25;20033;-61
2024/04/20 00:55:36;;;;;;;9.27;4.20;;;;;;;;;;5567883;25;20040;-61
2024/04/20 00:58:07;;;;;;;14.80;4.93;;;;;;;;;;5565800;25;20386;-62
2024/04/20 01:00:38;;;;;;;11.80;4.00;;;;;;;;;;5563462;25;20384;-61
2024/04/20 01:03:07;;;;;;;7.85;3.55;;;;;;;;;;5546687;25;20374;-61
2024/04/20 01:05:38;;;;;;;9.05;4.20;;;;;;;;;;5545121;25;20032;-61
2024/04/20 01:08:07;;;;;;;9.88;4.10;;;;;;;;;;5541982;25;20029;-61
2024/04/20 01:10:36;;;;;;;10.43;4.35;;;;;;;;;;5547000;25;20036;-61
2024/04/20 01:13:05;;;;;;;10.07;4.03;;;;;;;;;;5543435;25;20033;-62
2024/04/20 01:15:34;;;;;;;8.18;4.38;;;;;;;;;;5542296;25;20024;-61
2024/04/20 01:18:03;;;;;;;9.60;4.63;;;;;;;;;;5540381;25;20029;-62
2024/04/20 01:20:32;;;;;;;11.63;4.20;;;;;;;;;;5540072;25;20032;-62
2024/04/20 01:23:03;;;;;;;8.10;4.03;;;;;;;;;;5527070;25;20029;-61
2024/04/20 01:25:29;;;;;;;8.68;4.40;;;;;;;;;;5540279;25;20371;-62
2024/04/20 01:28:01;;;;;;;7.78;3.85;;;;;;;;;;5525164;25;20033;-61
2024/04/20 01:30:29;;;;;;;7.90;3.88;;;;;;;;;;5527488;26;20037;-62
2024/04/20 01:32:58;;;;;;;8.65;4.65;;;;;;;;;;5537949;25;20029;-61
2024/04/20 01:35:29;;;;;;;12.48;4.25;;;;;;;;;;5539355;25;20096;-62
2024/04/20 01:37:58;;;;;;;8.68;4.30;;;;;;;;;;5530054;25;20025;-62
2024/04/20 01:40:27;;;;;;;8.15;4.43;;;;;;;;;;5533796;25;20033;-62
2024/04/20 01:42:55;;;;;;;11.10;4.55;;;;;;;;;;5538920;25;20366;-62
2024/04/20 01:45:27;;;;;;;7.57;3.90;;;;;;;;;;5531653;25;20033;-62
2024/04/20 01:47:55;;;;;;;11.18;4.13;;;;;;;;;;5539129;25;20033;-61
2024/04/20 01:50:24;;;;;;;9.10;4.10;;;;;;;;;;5534265;25;20044;-61
2024/04/20 01:52:53;;;;;;;9.85;4.53;;;;;;;;;;5531995;25;20033;-63
2024/04/20 01:55:21;;;;;;;10.93;4.20;;;;;;;;;;5534670;25;20037;-62
2024/04/20 01:57:50;;;;;;;9.95;4.30;;;;;;;;;;5533258;25;20037;-62
2024/04/20 02:00:19;;;;;;;9.00;4.68;;;;;;;;;;5529371;25;20482;-62
2024/04/20 02:02:51;;;;;;;11.43;4.80;;;;;;;;;;5538766;25;20037;-62
2024/04/20 02:05:20;;;;;;;8.60;4.50;;;;;;;;;;5551148;25;20470;-62
2024/04/20 02:07:46;;;;;;;10.32;4.72;;;;;;;;;;5548085;25;20037;-62
2024/04/20 02:10:16;;;;;;;9.50;4.55;;;;;;;;;;5551802;25;20076;-61
2024/04/20 02:12:45;;;;;;;9.50;5.03;;;;;;;;;;5551532;25;20036;-61
2024/04/20 02:15:16;;;;;;;11.90;5.30;;;;;;;;;;5557207;25;20020;-61
2024/04/20 02:17:45;;;;;;;11.00;5.05;;;;;;;;;;5546815;25;20040;-61
2024/04/20 02:20:16;;;;;;;8.43;4.47;;;;;;;;;;5548623;25;20040;-61
2024/04/20 02:22:45;;;;;;;9.95;4.68;;;;;;;;;;5539150;25;20037;-61
2024/04/20 02:25:14;;;;;;;12.40;4.80;;;;;;;;;;5554451;25;20466;-62
2024/04/20 02:27:40;;;;;;;9.95;4.80;;;;;;;;;;5547611;25;20028;-61
2024/04/20 02:30:09;;;;;;;10.43;5.72;;;;;;;;;;5535089;25;20032;-63
2024/04/20 02:32:37;;;;;;;10.88;4.97;;;;;;;;;;5537584;25;20379;-62
2024/04/20 02:35:06;;;;;;;11.00;5.30;;;;;;;;;;5544347;25;20391;-61
2024/04/20 02:37:38;;;;;;;14.23;5.70;;;;;;;;;;5539474;25;20025;-62
2024/04/20 02:40:07;;;;;;;10.50;5.78;;;;;;;;;;5539109;25;20385;-61
2024/04/20 02:42:36;;;;;;;9.40;4.80;;;;;;;;;;5546991;25;20025;-62
2024/04/20 02:45:04;;;;;;;12.40;5.30;;;;;;;;;;5545366;25;20028;-61
2024/04/20 02:47:33;;;;;;;10.73;5.50;;;;;;;;;;5539967;25;20033;-62
2024/04/20 02:50:02;;;;;;;10.20;5.15;;;;;;;;;;5538705;25;20029;-61
2024/04/20 02:52:30;;;;;;;8.27;4.85;;;;;;;;;;5555508;25;20037;-62
2024/04/20 02:55:02;;;;;;;11.52;5.18;;;;;;;;;;5538526;25;20033;-62
2024/04/20 02:57:31;;;;;;;10.95;5.13;;;;;;;;;;5543490;25;20364;-61
2024/04/20 02:59:59;;;;;;;6.20;4.95;;;;;;;;;;5541384;25;20037;-62
2024/04/20 03:02:28;;;;;;;10.00;5.55;;;;;;;;;;5547185;25;20040;-61
2024/04/20 03:04:57;;;;;;;12.38;5.90;;;;;;;;;;5565045;25;20024;-61
2024/04/20 03:07:26;;;;;;;11.43;6.15;;;;;;;;;;5578440;25;20033;-60
2024/04/20 03:09:55;;;;;;;12.90;6.05;;;;;;;;;;5563398;25;20017;-61
2024/04/20 03:12:26;;;;;;;11.23;6.05;;;;;;;;;;5563432;25;20025;-61
2024/04/20 03:14:55;;;;;;;11.88;6.82;;;;;;;;;;5574902;25;20390;-61
2024/04/20 03:17:24;;;;;;;13.18;6.65;;;;;;;;;;5579472;25;20032;-61
2024/04/20 03:19:53;;;;;;;11.03;7.27;;;;;;;;;;5578790;25;20024;-62
2024/04/20 03:22:23;;;;;;;13.05;7.28;;;;;;;;;;5578001;25;20032;-61
2024/04/20 03:24:51;;;;;;;11.15;6.85;;;;;;;;;;5577254;25;20049;-61
2024/04/20 03:27:20;;;;;;;11.85;7.57;;;;;;;;;;5576385;25;20381;-62
2024/04/20 03:29:51;;;;;;;16.40;8.25;;;;;;;;;;5575394;25;20494;-62
2024/04/20 03:32:20;;;;;;;14.27;8.23;;;;;;;;;;5570436;25;20033;-61
2024/04/20 03:34:49;;;;;;;12.20;7.63;;;;;;;;;;5571414;25;20031;-62
2024/04/20 03:37:19;;;;;;;12.05;6.93;;;;;;;;;;5575089;25;19997;-61
2024/04/20 03:39:48;;;;;;;15.35;8.95;;;;;;;;;;5577676;25;20051;-62
2024/04/20 03:42:17;;;;;;;11.20;7.87;;;;;;;;;;5573998;25;20028;-62
2024/04/20 03:44:45;;;;;;;12.85;8.32;;;;;;;;;;5566196;25;20044;-61
2024/04/20 03:47:17;;;;;;;11.95;8.55;;;;;;;;;;5561054;25;20546;-62
2024/04/20 03:49:46;;;;;;;13.65;8.23;;;;;;;;;;5566027;25;20033;-62
2024/04/20 03:52:14;;;;;;;14.27;8.45;;;;;;;;;;5570625;25;20362;-62
2024/04/20 03:54:43;;;;;;;9.98;7.20;;;;;;;;;;5564168;25;20032;-62
2024/04/20 03:57:12;;;;;;;12.23;8.23;;;;;;;;;;5578712;25;20023;-61
2024/04/20 03:59:41;;;;;;;13.98;7.43;;;;;;;;;;5574364;25;20033;-62
2024/04/20 04:02:09;;;;;;;16.38;8.50;;;;;;;;;;5576480;25;20372;-62
2024/04/20 04:04:41;;;;;;;13.80;7.47;;;;;;;;;;5580974;25;20056;-61
2024/04/20 04:07:10;;;;;;;16.13;7.82;;;;;;;;;;5573157;25;20041;-61
2024/04/20 04:09:38;;;;;;;13.85;7.80;;;;;;;;;;5566194;25;20033;-62
2024/04/20 04:12:08;;;;;;;16.75;8.68;;;;;;;;;;5576696;25;20037;-62
2024/04/20 04:14:36;;;;;;;14.27;7.18;;;;;;;;;;5578514;25;20494;-62
2024/04/20 04:17:05;;;;;;;11.43;7.28;;;;;;;;;;5566117;25;20029;-61
2024/04/20 04:19:34;;;;;;;10.02;7.15;;;;;;;;;;5565742;25;20029;-61
2024/04/20 04:22:06;;;;;;;12.15;7.20;;;;;;;;;;5572806;25;20032;-61
2024/04/20 04:24:35;;;;;;;12.07;7.38;;;;;;;;;;5599231;25;20029;-61
2024/04/20 04:27:09;;;;;;;10.95;6.90;;;;;;;;;;5603698;25;20373;-61
2024/04/20 04:29:38;;;;;;;12.07;7.45;;;;;;;;;;5584579;25;20034;-61
2024/04/20 04:32:07;;;;;;;13.52;7.32;;;;;;;;;;5582525;25;20025;-62
2024/04/20 04:34:36;;;;;;;13.70;7.10;;;;;;;;;;5583342;25;20028;-61
2024/04/20 04:37:07;;;;;;;11.45;8.07;;;;;;;;;;5581535;25;20469;-61
2024/04/20 04:39:36;;;;;;;15.13;7.53;;;;;;;;;;5576761;25;20028;-61
2024/04/20 04:42:05;;;;;;;15.02;7.43;;;;;;;;;;5595627;25;20023;-62
2024/04/20 04:44:37;;;;;;;11.52;6.85;;;;;;;;;;5592626;25;20033;-61
2024/04/20 04:47:06;;;;;;;11.13;6.78;;;;;;;;;;5585597;25;20497;-61
2024/04/20 04:49:32;;;;;;;12.07;7.18;;;;;;;;;;5582520;25;20036;-61
2024/04/20 04:52:01;;;;;;;10.77;6.32;;;;;;;;;;5579386;25;20025;-62
2024/04/20 04:54:32;;;;;;;12.98;6.70;;;;;;;;;;5577647;25;20024;-61
2024/04/20 04:57:01;;;;;;;9.82;6.07;;;;;;;;;;5584306;25;20068;-62
2024/04/20 04:59:30;;;;;;;13.35;6.57;;;;;;;;;;5585141;25;20036;-62
2024/04/20 05:01:59;;;;;;;9.63;5.30;;;;;;;;;;5577315;25;20098;-62
2024/04/20 05:04:29;;;;;;;9.68;6.00;;;;;;;;;;5575781;25;20017;-63
2024/04/20 05:06:58;;;;;;;9.40;5.13;;;;;;;;;;5580433;25;20036;-61
2024/04/20 05:09:27;;;;;;;10.07;5.20;;;;;;;;;;5584939;25;20368;-62
2024/04/20 05:11:58;;;;;;;7.97;4.88;;;;;;;;;;5570963;25;20024;-62
2024/04/20 05:14:27;;;;;;;8.60;4.57;;;;;;;;;;5577673;25;20024;-62
2024/04/20 05:16:56;;;;;;;7.80;4.50;;;;;;;;;;5595225;25;20043;-62
2024/04/20 05:19:25;;;;;;;9.88;4.45;;;;;;;;;;5576445;25;20357;-62
2024/04/20 05:21:54;;;;;;;7.95;4.97;;;;;;;;;;5572909;25;20469;-62
2024/04/20 05:24:24;;;;;;;6.85;4.38;;;;;;;;;;5574976;25;20028;-62
2024/04/20 05:26:53;;;;;;;8.60;3.97;;;;;;;;;;5570495;25;20025;-62
2024/04/20 05:29:25;;;;;;;7.57;4.30;;;;;;;;;;5576029;25;20028;-62
2024/04/20 05:31:54;;;;;;;8.05;4.22;;;;;;;;;;5564669;25;20025;-62
2024/04/20 05:34:23;;;;;;;8.18;4.20;;;;;;;;;;5565054;25;20029;-61
2024/04/20 05:36:51;;;;;;;8.70;3.85;;;;;;;;;;5576940;25;20029;-61
2024/04/20 05:39:20;;;;;;;5.80;3.58;;;;;;;;;;5584549;25;20485;-61
2024/04/20 05:41:49;;;;;;;10.67;4.00;;;;;;;;;;5564414;25;20028;-61
2024/04/20 05:44:18;;;;;;;7.03;3.80;;;;;;;;;;5565099;25;20037;-61
2024/04/20 05:46:49;;;;;;;9.07;4.10;;;;;;;;;;5569461;25;20028;-62
2024/04/20 05:49:18;;;;;;;6.47;3.50;;;;;;;;;;5585614;25;20033;-61
2024/04/20 05:51:46;;;;;;;8.15;4.00;;;;;;;;;;5582651;25;20373;-61
2024/04/20 05:54:16;;;;;;;6.57;4.40;;;;;;;;;;5570185;25;20024;-61
2024/04/20 05:56:45;;;;;;;6.13;4.25;;;;;;;;;;5564430;25;20037;-61
2024/04/20 05:59:13;;;;;;;5.65;4.00;;;;;;;;;;5563670;25;20025;-63
2024/04/20 06:01:42;;;;;;;9.18;3.97;;;;;;;;;;5571213;25;20031;-62
2024/04/20 06:04:16;;;;;;;8.10;3.97;;;;;;;;;;5577820;25;20033;-61
2024/04/20 06:06:45;;;;;;;6.93;4.20;;;;;;;;;;5577443;25;20036;-61
2024/04/20 06:09:13;;;;;;;7.35;4.00;;;;;;;;;;5564743;25;20028;-61
2024/04/20 06:11:42;;;;;;;7.35;4.30;;;;;;;;;;5563724;25;20024;-61
2024/04/20 06:14:11;;;;;;;7.70;4.05;;;;;;;;;;5564274;25;20038;-61
2024/04/20 06:16:40;;;;;;;5.57;3.85;;;;;;;;;;5563713;25;20028;-61
2024/04/20 06:19:08;;;;;;;9.93;4.28;;;;;;;;;;5577789;25;20020;-61
2024/04/20 06:21:40;;;;;;;7.85;3.67;;;;;;;;;;5567356;25;20024;-61
2024/04/20 06:24:09;;;;;;;7.22;3.83;;;;;;;;;;5563875;25;20028;-61
2024/04/20 06:26:37;;;;;;;5.87;3.70;;;;;;;;;;5563415;25;20040;-61
2024/04/20 06:29:06;;;;;;;6.70;3.60;;;;;;;;;;5570780;25;20040;-62
2024/04/20 06:31:35;;;;;;;5.50;3.13;;;;;;;;;;5566765;25;20045;-61
2024/04/20 06:34:03;;;;;;;6.20;3.70;;;;;;;;;;5569408;25;20037;-61
2024/04/20 06:36:32;;;;;;;7.38;3.28;;;;;;;;;;5565920;25;20029;-61
2024/04/20 06:39:04;;;;;;;7.68;3.85;;;;;;;;;;5587670;25;20465;-61
2024/04/20 06:41:33;;;;;;;5.68;2.97;;;;;;;;;;5581752;25;20386;-61
2024/04/20 06:44:02;;;;;;;6.50;3.47;;;;;;;;;;5567729;25;20021;-62
2024/04/20 06:46:31;;;;;;;7.00;3.50;;;;;;;;;;5601616;25;20359;-61
2024/04/20 06:49:01;;;;;;;6.57;3.00;;;;;;;;;;5592866;25;20020;-62
2024/04/20 06:51:30;;;;;;;5.88;3.13;;;;;;;;;;5599352;25;20040;-63
2024/04/20 06:53:59;;;;;;;;;;;;;;;;;;5584595;25;20372;-61
2024/04/20 06:56:30;;;;;;;7.10;3.15;;;;;;;;;;5579265;25;19950;-61
2024/04/20 06:58:59;;;;;;;8.52;3.30;;;;;;;;;;5563568;25;20107;-61
2024/04/20 07:01:28;;;;;;;7.97;3.17;;;;;;;;;;5579280;25;20045;-61
2024/04/20 07:03:56;;;;;;;6.70;3.30;;;;;;;;;;5578714;25;20040;-61
2024/04/20 07:06:25;;;;;;;6.85;3.20;;;;;;;;;;5567971;25;20040;-61
2024/04/20 07:08:54;;;;;;;5.00;2.72;;;;;;;;;;5584861;25;20454;-61
2024/04/20 07:11:23;;;;;;;6.97;3.17;;;;;;;;;;5563147;25;20024;-61
2024/04/20 07:13:55;;;;;;;4.65;2.67;;;;;;;;;;5562892;25;20380;-61
2024/04/20 07:16:24;;;;;;;8.07;3.25;;;;;;;;;;5563214;25;20061;-61
2024/04/20 07:18:53;;;;;;;7.13;3.40;;;;;;;;;;5565482;25;20032;-62
2024/04/20 07:21:22;;;;;;;7.65;3.25;;;;;;;;;;5580231;25;20048;-61
2024/04/20 07:23:50;;;;;;;7.00;3.10;;;;;;;;;;5578592;25;20028;-62
2024/04/20 07:26:19;;;;;;;7.03;3.38;;;;;;;;;;5571087;25;20040;-61
2024/04/20 07:28:48;;;;;;;6.53;2.88;;;;;;;;;;5586642;25;20486;-61
2024/04/20 07:31:19;;;;;;;6.68;3.30;;;;;;;;;;5563052;25;20499;-62
2024/04/20 07:33:48;;;;;;;4.60;3.05;;;;;;;;;;5569878;25;20397;-61
2024/04/20 07:36:17;;;;;;;4.78;2.67;;;;;;;;;;5583611;25;20036;-61
2024/04/20 07:38:43;;;;;;;5.18;2.45;;;;;;;;;;5578976;25;20466;-63
2024/04/20 07:41:11;;;;;;;4.65;2.70;;;;;;;;;;5585686;25;20035;-61
2024/04/20 07:43:40;;;;;;;3.55;1.90;;;;;;;;;;5579552;25;20024;-60
2024/04/20 07:46:09;;;;;;;4.33;1.90;;;;;;;;;;5575888;25;20493;-60
2024/04/20 07:48:41;;;;;;;4.00;2.13;;;;;;;;;;5583481;25;20040;-60
2024/04/20 07:51:10;;;;;;;2.88;1.55;;;;;;;;;;5564802;25;20032;-60
2024/04/20 07:53:38;;;;;;;3.33;1.50;;;;;;;;;;5585256;25;20036;-60
2024/04/20 07:56:07;;;;;;;3.15;1.50;;;;;;;;;;5562020;25;20037;-60
2024/04/20 07:58:36;;;;;;;2.05;1.20;;;;;;;;;;5589253;25;20024;-61
2024/04/20 08:01:05;;;;;;;3.97;2.30;;;;;;;;;;5569131;25;20048;-60
2024/04/20 08:03:34;;;;;;;6.97;4.80;;;;;;;;;;5584369;25;20036;-60
2024/04/20 08:06:05;;;;;;;3.65;2.13;;;;;;;;;;5561915;25;20037;-61
2024/04/20 08:08:35;;;;;;;2.70;1.85;;;;;;;;;;5570023;25;20381;-61
2024/04/20 08:11:04;;;;;;;3.22;2.30;;;;;;;;;;5570677;25;20028;-61
2024/04/20 08:13:35;;;;;;;4.18;2.70;;;;;;;;;;5569787;25;20026;-60
2024/04/20 08:16:04;;;;;;;3.15;1.60;;;;;;;;;;5572916;25;20021;-60
2024/04/20 08:18:32;;;;;;;5.38;4.53;;;;;;;;;;5572806;25;20439;-59
2024/04/20 08:21:01;;;;;;;5.40;2.83;;;;;;;;;;5574917;25;20055;-60
2024/04/20 08:23:32;;;;;;;5.50;3.00;;;;;;;;;;5569465;25;20033;-60
2024/04/20 08:26:01;;;;;;;3.10;1.90;;;;;;;;;;5561247;25;20032;-60
2024/04/20 08:28:30;;;;;;;3.03;1.50;;;;;;;;;;5576927;25;20025;-60
2024/04/20 08:31:00;;;;;;;3.70;1.88;;;;;;;;;;5579608;25;20457;-60
2024/04/20 08:33:29;;;;;;;3.20;1.80;;;;;;;;;;5572697;25;20024;-60
2024/04/20 08:35:58;;;;;;;5.22;1.92;;;;;;;;;;5576267;25;20024;-60
2024/04/20 08:38:27;;;;;;;2.67;1.20;;;;;;;;;;5575364;25;20029;-60
2024/04/20 08:41:00;;;;;;;4.20;1.63;;;;;;;;;;5570844;25;20036;-60
2024/04/20 08:43:30;;;;;;;2.78;1.40;;;;;;;;;;5561068;25;20514;-60
2024/04/20 08:46:00;;;;;;;3.28;1.98;;;;;;;;;;5576854;25;20383;-60
2024/04/20 08:48:30;;;;;;;4.63;1.40;;;;;;;;;;5570445;25;20381;-60
2024/04/20 08:51:02;;;;;;;2.97;1.45;;;;;;;;;;5565001;25;20020;-60
2024/04/20 08:53:33;;;;;;;3.92;1.45;;;;;;;;;;5573969;25;20400;-60
2024/04/20 08:56:05;;;;;;;3.25;1.40;;;;;;;;;;5569885;25;20485;-60
2024/04/20 08:58:33;;;;;;;3.08;1.50;;;;;;;;;;5583198;25;20029;-60
2024/04/20 09:01:03;;;;;;;3.37;1.30;;;;;;;;;;5564212;25;20041;-60
2024/04/20 09:03:32;;;;;;;3.40;1.52;;;;;;;;;;5571569;25;20024;-60
2024/04/20 09:06:01;;;;;;;2.85;1.50;;;;;;;;;;5591912;25;20020;-60
2024/04/20 09:08:30;;;;;;;2.83;1.60;;;;;;;;;;5576106;25;20480;-60
2024/04/20 09:10:59;;;;;;;4.93;1.90;;;;;;;;;;5564858;25;20482;-60
2024/04/20 09:13:30;;;;;;;3.97;1.73;;;;;;;;;;5572523;25;20045;-60
2024/04/20 09:15:59;;;;;;;4.50;1.98;;;;;;;;;;5589143;25;20040;-61
2024/04/20 09:18:28;;;;;;;3.88;2.13;;;;;;;;;;5565145;25;20020;-60
2024/04/20 09:20:57;;;;;;;3.97;1.87;;;;;;;;;;5571524;25;20027;-60
2024/04/20 09:23:26;;;;;;;3.13;1.80;;;;;;;;;;5586988;25;20024;-61
2024/04/20 09:25:55;;;;;;;3.45;1.80;;;;;;;;;;5577381;25;20041;-64
2024/04/20 09:28:24;;;;;;;2.33;1.88;;;;;;;;;;5566868;25;20128;-64
2024/04/20 09:30:55;;;;;;;3.35;2.00;;;;;;;;;;5568602;25;20024;-64
2024/04/20 09:33:24;;;;;;;4.68;2.10;;;;;;;;;;5581232;25;20037;-64
2024/04/20 09:35:53;;;;;;;3.03;1.80;;;;;;;;;;5582269;25;20341;-64
2024/04/20 09:38:22;;;;;;;4.07;2.08;;;;;;;;;;5573408;25;20028;-65
2024/04/20 09:40:54;;;;;;;9.27;2.53;;;;;;;;;;5581865;25;20052;-62
2024/04/20 09:43:23;;;;;;;4.55;2.33;;;;;;;;;;5568702;25;20025;-64
2024/04/20 09:45:56;;;;;;;6.97;2.30;;;;;;;;;;5579266;25;20024;-64
2024/04/20 09:48:26;;;;;;;5.03;2.70;;;;;;;;;;5582260;25;20045;-62
2024/04/20 09:51:05;;;;;;;5.07;2.25;;;;;;;;;;5582624;25;20474;-62
2024/04/20 09:53:36;;;;;;;5.85;2.58;;;;;;;;;;5591014;25;20024;-62
2024/04/20 09:56:05;;;;;;;5.78;2.00;;;;;;;;;;5601598;25;20032;-62
2024/04/20 09:58:34;;;;;;;4.97;2.13;;;;;;;;;;5602466;25;20027;-62
2024/04/20 10:01:07;;;;;;;3.97;2.20;;;;;;;;;;5582254;25;20028;-62
2024/04/20 10:03:36;;;;;;;3.53;2.22;;;;;;;;;;5584576;25;20456;-62
2024/04/20 10:06:05;;;;;;;2.55;1.80;;;;;;;;;;5577652;25;20032;-63
2024/04/20 10:08:35;;;;;;;6.35;1.70;;;;;;;;;;5570287;25;20036;-62
2024/04/20 10:11:04;;;;;;;3.28;1.80;;;;;;;;;;5585974;25;20035;-62
2024/04/20 10:13:32;;;;;;;3.40;1.80;;;;;;;;;;5602009;25;20037;-62
2024/04/20 10:16:01;;;;;;;4.78;2.10;;;;;;;;;;5578447;25;20032;-62
2024/04/20 10:18:33;;;;;;;5.75;2.10;;;;;;;;;;5569911;25;20029;-60
2024/04/20 10:21:02;;;;;;;4.25;2.30;;;;;;;;;;5591719;25;20398;-61
2024/04/20 10:23:31;;;;;;;3.07;1.80;;;;;;;;;;5601091;25;20024;-61
2024/04/20 10:26:00;;;;;;;;;;;;;;;;;;5588784;25;20047;-61
2024/04/20 10:28:29;;;;;;;3.15;1.83;;;;;;;;;;5576761;25;19950;-60
2024/04/20 10:30:59;;;;;;;3.33;1.60;;;;;;;;;;5563207;25;20383;-60
2024/04/20 10:33:30;;;;;;;2.45;1.50;;;;;;;;;;5561403;25;20024;-60
2024/04/20 10:36:02;;;;;;;4.03;1.98;;;;;;;;;;5563785;25;20056;-60
2024/04/20 10:38:32;;;;;;;4.53;2.63;;;;;;;;;;5577137;25;20036;-60
2024/04/20 10:41:11;;;;;;;3.90;1.80;;;;;;;;;;5576914;25;20032;-60
2024/04/20 10:43:40;;;;;;;3.17;1.80;;;;;;;;;;5563348;25;20033;-60
2024/04/20 10:46:09;;;;;;;4.65;2.05;;;;;;;;;;5582389;25;20100;-60
2024/04/20 10:48:40;;;;;;;4.32;1.35;;;;;;;;;;5577626;25;20376;-60
2024/04/20 10:51:12;;;;;;;2.35;1.00;;;;;;;;;;5563300;25;20029;-60
2024/04/20 10:53:41;;;;;;;2.08;1.20;;;;;;;;;;5563392;25;20029;-60
2024/04/20 10:56:10;;;;;;;2.63;1.00;;;;;;;;;;5562559;25;20028;-60
2024/04/20 10:58:40;;;;;;;2.03;1.10;;;;;;;;;;5571099;25;20030;-60
2024/04/20 11:01:09;;;;;;;1.88;1.17;;;;;;;;;;5562039;25;20029;-61
2024/04/20 11:03:38;;;;;;;5.35;1.15;;;;;;;;;;5563123;25;20041;-61
2024/04/20 11:06:07;;;;;;;2.22;1.00;;;;;;;;;;5562871;25;20029;-61
2024/04/20 11:08:41;;;;;;;2.15;1.05;;;;;;;;;;5572501;25;20032;-62
2024/04/20 11:11:10;;;;;;;2.67;0.90;;;;;;;;;;5581626;25;20020;-61
2024/04/20 11:13:41;;;;;;;1.70;0.70;;;;;;;;;;5589406;25;20029;-61
2024/04/20 11:16:10;;;;;;;2.33;1.10;;;;;;;;;;5584397;25;20032;-60
2024/04/20 11:18:39;;;;;;;3.08;1.27;;;;;;;;;;5573541;25;20033;-60
2024/04/20 11:21:10;;;;;;;3.20;1.38;;;;;;;;;;5562202;25;20478;-60
2024/04/20 11:23:43;;;;;;;2.75;1.13;;;;;;;;;;5565863;25;20024;-60
2024/04/20 11:26:11;;;;;;;2.92;1.40;;;;;;;;;;5585236;25;20025;-60
2024/04/20 11:28:40;;;;;;;2.85;1.30;;;;;;;;;;5563031;25;20505;-61
2024/04/20 11:31:12;;;;;;;3.58;1.83;;;;;;;;;;5562594;25;20036;-60
2024/04/20 11:33:46;;;;;;;2.67;1.30;;;;;;;;;;5562620;25;20021;-60
2024/04/20 11:36:17;;;;;;;4.55;1.13;;;;;;;;;;5573848;25;20020;-60
2024/04/20 11:38:48;;;;;;;2.28;0.90;;;;;;;;;;5586686;25;20023;-60
2024/04/20 11:41:21;;;;;;;2.10;0.75;;;;;;;;;;5580751;25;20028;-60
2024/04/20 11:43:49;;;;;;;2.65;0.98;;;;;;;;;;5588926;25;20024;-60
2024/04/20 11:46:19;;;;;;;2.00;0.80;;;;;;;;;;5599748;25;20061;-60
2024/04/20 11:48:47;;;;;;;2.25;0.90;;;;;;;;;;5598448;25;20019;-61
2024/04/20 11:54:17;;;;;;;1.98;0.70;;;;;;;;;;5576569;25;20024;-61
2024/04/20 11:54:20;;;;;;;2.63;0.88;;;;;;;;;;5547784;25;20020;-61
2024/04/20 11:56:50;;;;;;;1.67;0.65;;;;;;;;;;5575641;25;20040;-61
2024/04/20 11:59:18;;;;;;;2.30;1.00;;;;;;;;;;5579128;25;20028;-60
2024/04/20 12:01:47;;;;;;;1.77;0.70;;;;;;;;;;5570966;25;20032;-60
2024/04/20 12:04:16;;;;;;;1.55;0.70;;;;;;;;;;5573221;25;21456;-60
2024/04/20 12:06:45;;;;;;;1.27;0.60;;;;;;;;;;5571907;25;20102;-61
2024/04/20 12:09:13;;;;;;;;;;;;;;;;;;5571840;25;20400;-61
2024/04/20 12:11:45;;;;;;;1.55;0.70;;;;;;;;;;5576838;25;19959;-60
2024/04/20 12:14:13;;;;;;;1.50;0.60;;;;;;;;;;5575277;25;20041;-60
2024/04/20 12:16:42;;;;;;;1.85;0.40;;;;;;;;;;5567729;25;20033;-60
2024/04/20 12:19:11;;;;;;;1.27;0.40;;;;;;;;;;5572175;25;20029;-60
2024/04/20 12:21:40;;;;;;;1.67;0.80;;;;;;;;;;5577191;25;20513;-60
2024/04/20 12:24:09;;;;;;;1.50;0.70;;;;;;;;;;5567054;25;20028;-60
2024/04/20 12:26:38;;;;;;;1.83;0.60;;;;;;;;;;5567301;25;20478;-60
2024/04/20 12:29:09;;;;;;;1.80;0.85;;;;;;;;;;5572684;25;20037;-59
2024/04/20 12:31:38;;;;;;;1.50;0.80;;;;;;;;;;5576731;25;20350;-62
2024/04/20 12:34:06;;;;;;;2.20;1.48;;;;;;;;;;5574859;25;20036;-59
2024/04/20 12:36:35;;;;;;;2.67;1.00;;;;;;;;;;5579628;25;20024;-59
2024/04/20 12:39:04;;;;;;;1.65;0.80;;;;;;;;;;5589178;25;20024;-60
2024/04/20 12:41:33;;;;;;;1.80;0.90;;;;;;;;;;5603235;25;20033;-60
2024/04/20 12:44:01;;;;;;;;;;;;;;;;;;5585788;25;20486;-60
2024/04/20 12:46:33;;;;;;;1.85;0.73;;;;;;;;;;5576496;25;20384;-60
2024/04/20 12:49:02;;;;;;;2.67;1.00;;;;;;;;;;5565876;25;20470;-60
2024/04/20 12:51:31;;;;;;;2.45;1.00;;;;;;;;;;5565179;25;20025;-60
2024/04/20 12:54:00;;;;;;;2.03;1.00;;;;;;;;;;5574563;25;20025;-60
2024/04/20 12:56:28;;;;;;;2.90;1.02;;;;;;;;;;5583110;25;20032;-59
2024/04/20 12:58:57;;;;;;;2.03;0.80;;;;;;;;;;5589357;25;20036;-60
2024/04/20 13:01:26;;;;;;;2.72;1.70;;;;;;;;;;5585664;25;20028;-60
2024/04/20 13:03:57;;;;;;;4.97;1.10;;;;;;;;;;5571997;25;20028;-61
2024/04/20 13:06:27;;;;;;;6.20;1.83;;;;;;;;;;5571250;25;20040;-59
2024/04/20 13:08:55;;;;;;;4.32;1.15;;;;;;;;;;5583701;25;20037;-59
2024/04/20 13:11:24;;;;;;;3.17;1.80;;;;;;;;;;5579656;25;20041;-63
2024/04/20 13:13:53;;;;;;;4.70;1.38;;;;;;;;;;5578875;25;20037;-64
2024/04/20 13:16:22;;;;;;;2.63;1.10;;;;;;;;;;5582121;25;20028;-72
2024/04/20 13:18:51;;;;;;;3.88;1.27;;;;;;;;;;5570737;25;20029;-64
2024/04/20 13:21:22;;;;;;;3.35;1.70;;;;;;;;;;5565142;25;20362;-63
2024/04/20 13:23:51;;;;;;;5.32;1.40;;;;;;;;;;5577005;25;20364;-60
2024/04/20 13:26:20;;;;;;;2.77;1.20;;;;;;;;;;5564770;25;20037;-58
2024/04/20 13:28:49;;;;;;;2.87;1.27;;;;;;;;;;5572464;25;20028;-62
2024/04/20 13:31:18;;;;;;;4.40;1.30;;;;;;;;;;5603117;25;20732;-61
2024/04/20 13:33:46;;;;;;;3.43;1.00;;;;;;;;;;5591849;25;20021;-61
2024/04/20 13:36:15;;;;;;;3.67;1.20;;;;;;;;;;5602162;25;20382;-66
2024/04/20 13:38:47;;;;;;;2.97;0.90;;;;;;;;;;5568122;25;20028;-66
2024/04/20 13:41:18;;;;;;;3.88;1.90;;;;;;;;;;5571143;25;20029;-61
2024/04/20 13:43:47;;;;;;;4.40;2.00;;;;;;;;;;5582075;25;20035;-68
2024/04/20 13:46:15;;;;;;;4.10;1.80;;;;;;;;;;5596117;25;20469;-71
2024/04/20 13:48:44;;;;;;;3.43;1.20;;;;;;;;;;5601591;25;20036;-59
2024/04/20 13:51:13;;;;;;;4.13;1.30;;;;;;;;;;5581358;25;20405;-59
2024/04/20 13:53:42;;;;;;;2.97;1.27;;;;;;;;;;5568865;25;20044;-59
2024/04/20 13:56:14;;;;;;;2.42;1.10;;;;;;;;;;5581336;25;20027;-59
2024/04/20 13:58:42;;;;;;;5.22;1.27;;;;;;;;;;5581566;25;20023;-59
2024/04/20 14:01:11;;;;;;;4.95;1.30;;;;;;;;;;5561298;25;20028;-59
2024/04/20 14:03:47;;;;;;;3.37;1.47;;;;;;;;;;5578400;25;20039;-59
2024/04/20 14:06:17;;;;;;;3.33;1.38;;;;;;;;;;5573103;25;20489;-59
2024/04/20 14:08:46;;;;;;;5.13;1.55;;;;;;;;;;5587347;25;20035;-59
2024/04/20 14:11:18;;;;;;;3.40;2.00;;;;;;;;;;5572573;25;20033;-58
2024/04/20 14:13:47;;;;;;;2.40;1.20;;;;;;;;;;5575211;25;20035;-58
2024/04/20 14:16:15;;;;;;;2.70;1.47;;;;;;;;;;5577630;25;20027;-59
2024/04/20 14:18:44;;;;;;;5.70;2.40;;;;;;;;;;5585981;25;20028;-58
2024/04/20 14:21:13;;;;;;;4.60;2.03;;;;;;;;;;5580687;25;20374;-59
2024/04/20 14:23:42;;;;;;;3.42;1.95;;;;;;;;;;5571713;25;20377;-59
2024/04/20 14:26:10;;;;;;;7.07;1.85;;;;;;;;;;5564264;25;20032;-60
2024/04/20 14:28:42;;;;;;;6.60;2.90;;;;;;;;;;5575535;25;20028;-60
2024/04/20 14:31:11;;;;;;;6.65;2.83;;;;;;;;;;5567092;25;20033;-59
2024/04/20 14:33:40;;;;;;;3.10;1.50;;;;;;;;;;5568574;25;20029;-59
2024/04/20 14:36:15;;;;;;;2.03;1.17;;;;;;;;;;5580959;25;20032;-59
2024/04/20 14:38:44;;;;;;;1.90;0.90;;;;;;;;;;5567311;25;20020;-59
2024/04/20 14:41:13;;;;;;;2.08;0.88;;;;;;;;;;5592562;25;20373;-59
2024/04/20 14:43:45;;;;;;;2.60;0.80;;;;;;;;;;5563485;25;20038;-59
2024/04/20 14:46:13;;;;;;;2.08;0.90;;;;;;;;;;5569235;25;20028;-58
2024/04/20 14:48:42;;;;;;;3.65;1.00;;;;;;;;;;5570954;25;20048;-58
2024/04/20 14:51:12;;;;;;;3.53;1.10;;;;;;;;;;5563691;25;20032;-58
2024/04/20 14:53:42;;;;;;;2.10;1.05;;;;;;;;;;5563409;25;20365;-59